N3113F KPYM-KPYM
Flight info
| Callsign | N3113F |
|---|---|
| Flight time | 0h 2m |
| Altitude | 1500 |
| Route | PATTERN WORK |
| Aircraft | J3/L-Y/EB2 |
Departure
| Time | 2026-04-27 21:50 |
|---|---|
| Airport | Plymouth Municipal Airport (KPYM) |
Arrival
| Time | 2026-04-27 21:52 |
|---|---|
| Airport | Plymouth Municipal Airport (KPYM) |
| Time | Latitude | Longitude | Altitude | Speed | Heading |
|---|---|---|---|---|---|
| 2026-04-27 21:30 | 41.90919 | -70.73302 | 145 ft | 0 kts | 309° |
| 2026-04-27 21:41 | 41.90920 | -70.73304 | 145 ft | 1 kts | 359° |
| 2026-04-27 21:41 | 41.90924 | -70.73301 | 145 ft | 0 kts | 122° |
| 2026-04-27 21:42 | 41.90917 | -70.73286 | 145 ft | 2 kts | 124° |
| 2026-04-27 21:43 | 41.90903 | -70.73263 | 145 ft | 3 kts | 128° |
| 2026-04-27 21:43 | 41.90877 | -70.73267 | 145 ft | 6 kts | 220° |
| 2026-04-27 21:43 | 41.90838 | -70.73310 | 144 ft | 8 kts | 214° |
| 2026-04-27 21:43 | 41.90798 | -70.73353 | 144 ft | 7 kts | 237° |
| 2026-04-27 21:44 | 41.90764 | -70.73392 | 145 ft | 7 kts | 221° |
| 2026-04-27 21:44 | 41.90722 | -70.73440 | 145 ft | 9 kts | 218° |
| 2026-04-27 21:44 | 41.90682 | -70.73482 | 145 ft | 8 kts | 236° |
| 2026-04-27 21:44 | 41.90635 | -70.73535 | 142 ft | 9 kts | 220° |
| 2026-04-27 21:45 | 41.90587 | -70.73590 | 141 ft | 10 kts | 218° |
| 2026-04-27 21:45 | 41.90527 | -70.73654 | 140 ft | 13 kts | 218° |
| 2026-04-27 21:45 | 41.90499 | -70.73714 | 139 ft | 5 kts | 231° |
| 2026-04-27 21:45 | 41.90479 | -70.73726 | 139 ft | 2 kts | 142° |
| 2026-04-27 21:46 | 41.90475 | -70.73719 | 139 ft | 0 kts | 91° |
| 2026-04-27 21:46 | 41.90475 | -70.73718 | 139 ft | 0 kts | 91° |
| 2026-04-27 21:46 | 41.90475 | -70.73717 | 139 ft | 0 kts | 79° |
| 2026-04-27 21:46 | 41.90473 | -70.73708 | 139 ft | 2 kts | 137° |
| 2026-04-27 21:47 | 41.90472 | -70.73706 | 139 ft | 0 kts | 149° |
| 2026-04-27 21:47 | 41.90460 | -70.73696 | 138 ft | 6 kts | 140° |
| 2026-04-27 21:48 | 41.90438 | -70.73652 | 137 ft | 4 kts | 94° |
| 2026-04-27 21:48 | 41.90443 | -70.73629 | 137 ft | 0 kts | 41° |
| 2026-04-27 21:49 | 41.90522 | -70.73544 | 169 ft | 39 kts | 40° |
| 2026-04-27 21:49 | 41.90762 | -70.73293 | 426 ft | 47 kts | 37° |
| 2026-04-27 21:49 | 41.91007 | -70.73048 | 755 ft | 41 kts | 34° |
| 2026-04-27 21:49 | 41.91238 | -70.72859 | 972 ft | 44 kts | 34° |
| 2026-04-27 21:50 | 41.91546 | -70.72749 | 1131 ft | 55 kts | 1° |
| 2026-04-27 21:50 | 41.91850 | -70.73128 | 1172 ft | 68 kts | 312° |
| 2026-04-27 21:50 | 41.91915 | -70.73797 | 1136 ft | 79 kts | 253° |
| 2026-04-27 21:50 | 41.91563 | -70.74331 | 1152 ft | 75 kts | 214° |
| 2026-04-27 21:51 | 41.91168 | -70.74757 | 1221 ft | 71 kts | 214° |
| 2026-04-27 21:51 | 41.90789 | -70.75138 | 1253 ft | 68 kts | 207° |
| 2026-04-27 21:51 | 41.90395 | -70.75476 | 1174 ft | 66 kts | 197° |
| 2026-04-27 21:51 | 41.89993 | -70.75451 | 1116 ft | 53 kts | 135° |
| 2026-04-27 21:52 | 41.89741 | -70.75131 | 1039 ft | 50 kts | 116° |
| 2026-04-27 21:52 | 41.89601 | -70.74746 | 905 ft | 43 kts | 79° |
| 2026-04-27 21:52 | 41.89727 | -70.74397 | 750 ft | 39 kts | 44° |
| 2026-04-27 21:52 | 41.89982 | -70.74152 | 487 ft | 47 kts | 44° |
| 2026-04-27 21:53 | 41.90231 | -70.73865 | 303 ft | 44 kts | 36° |
| 2026-04-27 21:53 | 41.90458 | -70.73613 | 143 ft | 37 kts | 39° |
| 2026-04-27 21:53 | 41.90600 | -70.73458 | 141 ft | 15 kts | 37° |
| 2026-04-27 21:53 | 41.90760 | -70.73276 | 292 ft | 38 kts | 40° |
| 2026-04-27 21:54 | 41.90990 | -70.73035 | 533 ft | 45 kts | 36° |
| 2026-04-27 21:54 | 41.91226 | -70.72825 | 826 ft | 36 kts | 39° |
| 2026-04-27 21:54 | 41.91440 | -70.72611 | 1066 ft | 41 kts | 41° |
| 2026-04-27 21:54 | 41.91690 | -70.72400 | 1149 ft | 48 kts | 21° |
| 2026-04-27 21:55 | 41.92050 | -70.72553 | 1146 ft | 66 kts | 329° |
| 2026-04-27 21:55 | 41.92303 | -70.73114 | 1115 ft | 75 kts | 297° |
| 2026-04-27 21:55 | 41.92213 | -70.73790 | 1125 ft | 79 kts | 233° |
| 2026-04-27 21:55 | 41.91808 | -70.74254 | 1164 ft | 76 kts | 213° |
| 2026-04-27 21:56 | 41.91359 | -70.74647 | 1194 ft | 79 kts | 207° |
| 2026-04-27 21:56 | 41.90461 | -70.75381 | 1115 ft | 72 kts | 196° |
| 2026-04-27 21:56 | 41.90027 | -70.75378 | 1004 ft | 56 kts | 142° |
| 2026-04-27 21:57 | 41.89773 | -70.75061 | 950 ft | 48 kts | 118° |
| 2026-04-27 21:57 | 41.89643 | -70.74666 | 855 ft | 46 kts | 85° |
| 2026-04-27 21:57 | 41.89791 | -70.74357 | 634 ft | 40 kts | 40° |
| 2026-04-27 21:57 | 41.90027 | -70.74106 | 427 ft | 47 kts | 45° |
| 2026-04-27 21:58 | 41.90252 | -70.73834 | 279 ft | 40 kts | 35° |
| 2026-04-27 21:58 | 41.90473 | -70.73597 | 140 ft | 35 kts | 40° |
| 2026-04-27 21:58 | 41.90614 | -70.73442 | 143 ft | 32 kts | 39° |
| 2026-04-27 21:58 | 41.90803 | -70.73202 | 365 ft | 43 kts | 43° |
| 2026-04-27 21:59 | 41.91043 | -70.72951 | 624 ft | 40 kts | 35° |
| 2026-04-27 21:59 | 41.91248 | -70.72748 | 909 ft | 41 kts | 39° |
| 2026-04-27 21:59 | 41.91461 | -70.72539 | 1128 ft | 38 kts | 41° |
| 2026-04-27 21:59 | 41.91756 | -70.72456 | 1159 ft | 53 kts | 354° |
| 2026-04-27 22:00 | 41.92076 | -70.72786 | 1174 ft | 62 kts | 319° |
| 2026-04-27 22:00 | 41.92301 | -70.73329 | 1106 ft | 72 kts | 291° |
| 2026-04-27 22:00 | 41.92197 | -70.73975 | 1099 ft | 71 kts | 228° |
| 2026-04-27 22:00 | 41.91831 | -70.74394 | 1168 ft | 68 kts | 213° |
| 2026-04-27 22:01 | 41.91439 | -70.74730 | 1231 ft | 69 kts | 207° |
| 2026-04-27 22:01 | 41.91007 | -70.75081 | 1264 ft | 76 kts | 208° |
| 2026-04-27 22:01 | 41.90561 | -70.75409 | 1143 ft | 70 kts | 202° |
| 2026-04-27 22:01 | 41.90133 | -70.75474 | 1049 ft | 57 kts | 150° |
| 2026-04-27 22:02 | 41.89869 | -70.75166 | 949 ft | 49 kts | 114° |
| 2026-04-27 22:02 | 41.89705 | -70.74752 | 753 ft | 48 kts | 95° |
| 2026-04-27 22:02 | 41.89786 | -70.74382 | 554 ft | 45 kts | 53° |
| 2026-04-27 22:02 | 41.90011 | -70.74106 | 402 ft | 46 kts | 46° |
| 2026-04-27 22:03 | 41.90236 | -70.73864 | 263 ft | 37 kts | 45° |
| 2026-04-27 22:03 | 41.90441 | -70.73632 | 140 ft | 36 kts | 38° |
| 2026-04-27 22:03 | 41.90580 | -70.73477 | 140 ft | 17 kts | 42° |
| 2026-04-27 22:03 | 41.90759 | -70.73289 | 304 ft | 38 kts | 41° |
| 2026-04-27 22:04 | 41.90977 | -70.73060 | 552 ft | 39 kts | 40° |
| 2026-04-27 22:04 | 41.91181 | -70.72829 | 816 ft | 37 kts | 45° |
| 2026-04-27 22:04 | 41.91360 | -70.72637 | 1036 ft | 36 kts | 40° |
| 2026-04-27 22:04 | 41.91604 | -70.72409 | 1140 ft | 48 kts | 27° |
| 2026-04-27 22:05 | 41.91965 | -70.72518 | 1164 ft | 66 kts | 334° |
| 2026-04-27 22:05 | 41.92246 | -70.73045 | 1156 ft | 70 kts | 309° |
| 2026-04-27 22:05 | 41.92277 | -70.73700 | 1153 ft | 71 kts | 255° |
| 2026-04-27 22:05 | 41.91971 | -70.74191 | 1187 ft | 70 kts | 217° |
| 2026-04-27 22:06 | 41.91578 | -70.74605 | 1222 ft | 73 kts | 213° |
| 2026-04-27 22:06 | 41.91154 | -70.75008 | 1279 ft | 74 kts | 211° |
| 2026-04-27 22:06 | 41.90749 | -70.75380 | 1271 ft | 64 kts | 209° |
| 2026-04-27 22:06 | 41.90358 | -70.75683 | 1137 ft | 63 kts | 186° |
| 2026-04-27 22:07 | 41.89978 | -70.75608 | 1004 ft | 50 kts | 136° |
| 2026-04-27 22:07 | 41.89772 | -70.75235 | 891 ft | 54 kts | 109° |
| 2026-04-27 22:07 | 41.89640 | -70.74814 | 785 ft | 44 kts | 86° |
| 2026-04-27 22:07 | 41.89712 | -70.74474 | 590 ft | 44 kts | 57° |
| 2026-04-27 22:08 | 41.89971 | -70.74170 | 474 ft | 49 kts | 43° |
| 2026-04-27 22:08 | 41.90209 | -70.73875 | 253 ft | 45 kts | 48° |
| 2026-04-27 22:08 | 41.90436 | -70.73635 | 144 ft | 36 kts | 41° |
| 2026-04-27 22:08 | 41.90580 | -70.73478 | 140 ft | 15 kts | 39° |
| 2026-04-27 22:09 | 41.90612 | -70.73462 | 142 ft | 4 kts | 332° |
| 2026-04-27 22:09 | 41.90639 | -70.73499 | 143 ft | 4 kts | 311° |
| 2026-04-27 22:09 | 41.90663 | -70.73503 | 144 ft | 4 kts | 33° |
| 2026-04-27 22:09 | 41.90689 | -70.73475 | 145 ft | 3 kts | 42° |
| 2026-04-27 22:10 | 41.90710 | -70.73452 | 145 ft | 6 kts | 38° |
| 2026-04-27 22:10 | 41.90733 | -70.73428 | 146 ft | 6 kts | 51° |
| 2026-04-27 22:10 | 41.90774 | -70.73381 | 145 ft | 5 kts | 38° |
| 2026-04-27 22:10 | 41.90796 | -70.73358 | 144 ft | 3 kts | 28° |
| 2026-04-27 22:11 | 41.90811 | -70.73341 | 144 ft | 3 kts | 38° |
| 2026-04-27 22:11 | 41.90833 | -70.73335 | 144 ft | 4 kts | 321° |
| 2026-04-27 22:11 | 41.90853 | -70.73358 | 144 ft | 2 kts | 317° |
| 2026-04-27 22:11 | 41.90863 | -70.73361 | 144 ft | 0 kts | 40° |